Time;durP1;ratioP1;P1;durP2;ratioP2;P2;SDS_P1;SDS_P2;PMS_P1;PMS_P2;Temp;Humidity;BMP_temperature;BMP_pressure;BME280_temperature;BME280_humidity;BME280_pressure;Samples;Min_cycle;Max_cycle;Signal;HPM_P1;HPM_P2
2023/06/14 00:01:20;;;;;;;3.22;2.55;;;;;;;16.03;100.00;94336.16;5128699;27;20027;-70
2023/06/14 00:03:45;;;;;;;3.80;2.85;;;;;;;15.99;100.00;94334.94;5128850;27;20024;-70
2023/06/14 00:06:11;;;;;;;2.90;2.70;;;;;;;15.97;100.00;94329.84;5132909;27;20084;-70
2023/06/14 00:08:36;;;;;;;4.25;2.72;;;;;;;15.96;100.00;94336.16;5134087;27;20076;-70
2023/06/14 00:11:02;;;;;;;2.22;1.98;;;;;;;15.92;100.00;94337.63;5132569;27;20026;-70
2023/06/14 00:13:27;;;;;;;2.55;2.33;;;;;;;15.88;100.00;94339.84;5130451;27;20030;-70
2023/06/14 00:15:54;;;;;;;2.05;1.90;;;;;;;15.87;100.00;94348.00;5133904;27;20033;-70
2023/06/14 00:18:23;;;;;;;5.13;2.38;;;;;;;15.84;100.00;94341.28;5133382;27;20034;-70
2023/06/14 00:20:50;;;;;;;4.63;2.80;;;;;;;15.85;100.00;94334.16;5128972;27;20034;-70
2023/06/14 00:23:16;;;;;;;4.43;2.55;;;;;;;15.78;100.00;94331.50;5123663;27;20027;-70
2023/06/14 00:25:41;;;;;;;4.75;2.60;;;;;;;15.73;100.00;94329.47;5136194;27;20041;-70
2023/06/14 00:28:07;;;;;;;4.05;2.60;;;;;;;15.71;100.00;94328.84;5128130;27;20600;-70
2023/06/14 00:30:32;;;;;;;7.80;2.53;;;;;;;15.69;100.00;94322.13;5132650;27;20539;-70
2023/06/14 00:32:57;;;;;;;2.95;2.38;;;;;;;15.70;100.00;94319.28;5134207;27;20076;-70
2023/06/14 00:35:23;;;;;;;3.33;2.95;;;;;;;15.69;100.00;94307.03;5129844;27;20389;-70
2023/06/14 00:37:49;;;;;;;4.97;2.60;;;;;;;15.67;100.00;94311.72;5130493;27;20557;-70
2023/06/14 00:40:14;;;;;;;2.65;2.42;;;;;;;15.65;100.00;94303.16;5122069;27;20073;-70
2023/06/14 00:42:39;;;;;;;3.35;2.63;;;;;;;15.61;100.00;94280.72;5129843;27;20035;-70
2023/06/14 00:45:05;;;;;;;2.42;2.17;;;;;;;15.60;100.00;94268.50;5122670;27;20031;-70
2023/06/14 00:47:30;;;;;;;2.50;2.40;;;;;;;15.59;100.00;94266.88;5133696;27;20483;-70
2023/06/14 00:49:56;;;;;;;3.95;2.28;;;;;;;15.62;100.00;94261.16;5135355;27;20023;-70
2023/06/14 00:52:24;;;;;;;3.97;2.40;;;;;;;15.62;100.00;94255.84;5125613;27;20023;-70
2023/06/14 00:54:50;;;;;;;3.20;2.45;;;;;;;15.66;100.00;94241.13;5127918;27;20162;-70
2023/06/14 00:57:15;;;;;;;2.80;2.58;;;;;;;15.69;100.00;94235.41;5132018;27;20050;-70
2023/06/14 00:59:46;;;;;;;3.45;2.95;;;;;;;15.68;100.00;94231.13;5131792;27;20023;-70
2023/06/14 01:02:12;;;;;;;4.97;2.72;;;;;;;15.69;100.00;94224.78;5138895;27;20085;-70
2023/06/14 01:04:41;;;;;;;4.30;2.45;;;;;;;15.67;100.00;94221.53;5133129;27;20042;-70
2023/06/14 01:07:22;;;;;;;4.90;2.83;;;;;;;15.64;100.00;94221.13;5134091;27;20028;-70
2023/06/14 01:10:12;;;;;;;3.88;2.90;;;;;;;15.64;100.00;94221.94;5128798;27;20055;-70
2023/06/14 01:12:46;;;;;;;4.80;2.65;;;;;;;15.65;100.00;94218.28;5126723;27;20027;-69
2023/06/14 01:15:12;;;;;;;3.17;2.70;;;;;;;15.65;100.00;94215.63;5132413;27;20038;-70
2023/06/14 01:17:43;;;;;;;2.90;2.70;;;;;;;15.67;100.00;94208.25;5134625;27;20284;-70
2023/06/14 01:20:14;;;;;;;3.47;2.90;;;;;;;15.67;100.00;94200.31;5135425;27;20027;-70
2023/06/14 01:22:52;;;;;;;3.15;2.70;;;;;;;15.61;100.00;94191.34;5127061;27;20149;-70
2023/06/14 01:25:22;;;;;;;3.67;2.80;;;;;;;15.59;100.00;94179.34;5125998;27;20391;-70
2023/06/14 01:27:53;;;;;;;2.72;2.55;;;;;;;15.62;100.00;94160.34;5133702;27;20170;-70
2023/06/14 01:30:21;;;;;;;2.72;2.58;;;;;;;15.67;100.00;94157.88;5138266;27;20026;-70
2023/06/14 01:32:47;;;;;;;7.75;2.83;;;;;;;15.68;100.00;94150.72;5130860;27;20031;-70
2023/06/14 01:35:12;;;;;;;5.25;3.30;;;;;;;15.68;100.00;94148.88;5135628;27;20604;-70
2023/06/14 01:37:40;;;;;;;6.15;3.50;;;;;;;15.68;100.00;94145.41;5136418;27;20625;-70
2023/06/14 01:40:07;;;;;;;3.50;3.30;;;;;;;15.68;100.00;94135.63;5128670;27;20015;-70
2023/06/14 01:42:36;;;;;;;3.38;3.05;;;;;;;15.67;100.00;94131.34;5136476;27;20031;-69
2023/06/14 01:45:03;;;;;;;3.30;3.08;;;;;;;15.66;100.00;94135.03;5138789;27;20110;-70
2023/06/14 01:47:30;;;;;;;3.50;3.20;;;;;;;15.66;100.00;94129.72;5128397;27;20023;-70
2023/06/14 01:49:56;;;;;;;4.68;3.20;;;;;;;15.66;100.00;94129.72;5139955;27;20020;-69
2023/06/14 01:52:22;;;;;;;4.15;2.70;;;;;;;15.74;100.00;94113.53;5128741;27;20502;-70
2023/06/14 01:54:47;;;;;;;3.08;2.88;;;;;;;15.75;100.00;94114.38;5134702;27;20522;-70
2023/06/14 01:57:13;;;;;;;3.60;2.95;;;;;;;15.72;100.00;94115.59;5131060;27;20039;-70
2023/06/14 01:59:38;;;;;;;2.88;2.75;;;;;;;15.67;100.00;94114.59;5129578;27;20019;-71
2023/06/14 02:02:04;;;;;;;4.68;3.08;;;;;;;15.61;100.00;94109.13;5130865;27;20026;-70
2023/06/14 02:04:29;;;;;;;4.68;2.95;;;;;;;15.63;100.00;94113.41;5129784;27;20402;-70
2023/06/14 02:06:55;;;;;;;2.70;2.60;;;;;;;15.68;100.00;94100.31;5131126;27;20095;-70
2023/06/14 02:09:20;;;;;;;5.35;3.17;;;;;;;15.72;100.00;94102.31;5125244;27;20031;-70
2023/06/14 02:11:45;;;;;;;6.78;2.42;;;;;;;15.71;100.00;94095.41;5129711;27;20030;-70
2023/06/14 02:14:11;;;;;;;3.15;2.90;;;;;;;15.73;100.00;94095.19;5126303;27;20188;-70
2023/06/14 02:16:38;;;;;;;8.23;2.75;;;;;;;15.70;100.00;94092.97;5132153;27;20031;-70
2023/06/14 02:19:05;;;;;;;4.50;2.78;;;;;;;15.68;100.00;94090.53;5133145;27;20023;-70
2023/06/14 02:21:30;;;;;;;3.15;2.50;;;;;;;15.64;100.00;94150.34;5128751;27;20107;-70
2023/06/14 02:23:58;;;;;;;3.00;2.80;;;;;;;15.63;100.00;94151.34;5128077;27;20023;-70
2023/06/14 02:26:23;;;;;;;5.15;2.72;;;;;;;15.60;100.00;94159.75;5125467;27;20027;-70
2023/06/14 02:28:49;;;;;;;3.60;2.65;;;;;;;15.60;100.00;94149.13;5127937;27;20541;-70
2023/06/14 02:31:14;;;;;;;4.53;2.75;;;;;;;15.63;100.00;94146.06;5125563;27;20028;-70
2023/06/14 02:33:40;;;;;;;2.80;2.60;;;;;;;15.66;100.00;94131.53;5140575;27;20093;-71
2023/06/14 02:36:06;;;;;;;5.70;2.95;;;;;;;15.65;100.00;94136.03;5129671;27;20065;-70
2023/06/14 02:38:31;;;;;;;2.97;2.75;;;;;;;15.67;100.00;94127.84;5135008;27;20039;-70
2023/06/14 02:40:57;;;;;;;3.00;2.42;;;;;;;15.63;100.00;94204.41;5120754;27;20029;-70
2023/06/14 02:43:22;;;;;;;2.50;2.40;;;;;;;15.59;100.00;94235.84;5134680;27;20079;-70
2023/06/14 02:45:48;;;;;;;2.92;2.60;;;;;;;15.57;100.00;94308.66;5135920;27;20069;-70
2023/06/14 02:48:13;;;;;;;3.53;2.60;;;;;;;15.57;100.00;94321.94;5136207;27;20027;-70
2023/06/14 02:50:38;;;;;;;4.43;2.67;;;;;;;15.54;100.00;94327.66;5136158;27;20022;-70
2023/06/14 02:53:04;;;;;;;3.40;2.80;;;;;;;15.54;100.00;94317.03;5146576;27;20106;-70
2023/06/14 02:55:29;;;;;;;3.67;2.50;;;;;;;15.55;100.00;94322.16;5137389;27;20027;-70
2023/06/14 02:57:54;;;;;;;4.43;2.42;;;;;;;15.62;100.00;94324.81;5137038;27;20035;-70
2023/06/14 03:00:20;;;;;;;2.83;2.25;;;;;;;15.63;100.00;94326.44;5136705;27;20039;-70
2023/06/14 03:02:46;;;;;;;3.80;2.70;;;;;;;15.61;100.00;94331.13;5136522;27;20114;-70
2023/06/14 03:05:12;;;;;;;2.85;2.55;;;;;;;15.60;100.00;94337.47;5136844;27;20046;-70
2023/06/14 03:07:40;;;;;;;2.97;2.63;;;;;;;15.56;100.00;94342.34;5133923;27;20023;-70
2023/06/14 03:10:09;;;;;;;4.53;2.28;;;;;;;15.50;100.00;94345.00;5132778;27;20028;-70
2023/06/14 03:12:35;;;;;;;4.25;2.30;;;;;;;15.41;100.00;94353.19;5146176;27;20023;-70
2023/06/14 03:15:01;;;;;;;2.95;2.30;;;;;;;15.42;100.00;94354.81;5147756;27;20443;-70
2023/06/14 03:17:29;;;;;;;4.70;2.80;;;;;;;15.44;100.00;94354.59;5137080;27;20023;-70
2023/06/14 03:19:55;;;;;;;4.32;2.72;;;;;;;15.46;100.00;94350.72;5134993;27;20075;-70
2023/06/14 03:22:21;;;;;;;3.42;2.10;;;;;;;15.50;100.00;94358.25;5135235;27;20065;-70
2023/06/14 03:24:47;;;;;;;2.20;2.10;;;;;;;15.54;100.00;94360.31;5133056;27;20402;-70
2023/06/14 03:27:14;;;;;;;5.25;2.20;;;;;;;15.55;100.00;94359.28;5126535;27;20026;-70
2023/06/14 03:29:39;;;;;;;3.63;2.58;;;;;;;15.51;100.00;94363.38;5141540;27;20092;-70
2023/06/14 03:32:05;;;;;;;2.85;2.53;;;;;;;15.47;100.00;94362.13;5135776;27;20035;-70
2023/06/14 03:34:31;;;;;;;3.03;2.75;;;;;;;15.41;100.00;94363.78;5141437;27;20494;-70
2023/06/14 03:36:56;;;;;;;2.85;2.65;;;;;;;15.37;100.00;94359.09;5135673;27;20059;-70
2023/06/14 03:39:22;;;;;;;3.85;2.80;;;;;;;15.35;100.00;94361.94;5134260;27;20020;-70
2023/06/14 03:41:47;;;;;;;2.90;2.70;;;;;;;15.36;100.00;94360.13;5136618;27;20035;-69
2023/06/14 03:44:18;;;;;;;3.38;2.58;;;;;;;15.36;100.00;94350.31;5137688;27;20184;-70
2023/06/14 03:46:44;;;;;;;2.67;2.47;;;;;;;15.32;100.00;94347.28;5127325;27;20023;-70
2023/06/14 03:49:11;;;;;;;2.83;2.63;;;;;;;15.31;100.00;94350.09;5131319;27;20020;-70
2023/06/14 03:51:36;;;;;;;3.72;3.42;;;;;;;15.29;100.00;94349.50;5128642;27;20031;-70
2023/06/14 03:54:02;;;;;;;3.03;2.83;;;;;;;15.25;100.00;94343.81;5139198;27;20087;-70
2023/06/14 03:56:27;;;;;;;5.18;4.70;;;;;;;15.23;100.00;94355.63;5111252;27;20054;-70
2023/06/14 03:58:52;;;;;;;5.60;5.10;;;;;;;15.20;100.00;94353.38;5133512;27;20031;-70
2023/06/14 04:01:18;;;;;;;5.25;4.85;;;;;;;15.21;100.00;94345.22;5136212;27;20054;-69
2023/06/14 04:03:43;;;;;;;3.45;3.15;;;;;;;15.27;100.00;94354.19;5134217;27;20061;-69
2023/06/14 04:06:09;;;;;;;5.00;3.15;;;;;;;15.24;100.00;94357.25;5131748;27;20031;-70
2023/06/14 04:08:35;;;;;;;3.22;2.95;;;;;;;15.24;100.00;94362.56;5136302;27;20031;-69
2023/06/14 04:11:01;;;;;;;3.47;2.90;;;;;;;15.22;100.00;94361.94;5136341;27;20098;-69
2023/06/14 04:13:26;;;;;;;2.80;2.60;;;;;;;15.19;100.00;94365.81;5136713;27;20031;-68
2023/06/14 04:15:52;;;;;;;3.15;2.95;;;;;;;15.12;100.00;94373.75;5117993;27;20027;-68
2023/06/14 04:18:19;;;;;;;3.25;3.05;;;;;;;15.12;100.00;94373.75;5136089;27;20116;-68
2023/06/14 04:20:45;;;;;;;4.65;3.10;;;;;;;15.10;100.00;94373.16;5136746;27;20071;-68
2023/06/14 04:23:18;;;;;;;4.82;3.17;;;;;;;15.13;100.00;94354.19;5129283;27;20086;-69
2023/06/14 04:25:48;;;;;;;4.90;3.05;;;;;;;15.20;100.00;94348.88;5137038;27;20027;-70
2023/06/14 04:28:19;;;;;;;2.83;2.63;;;;;;;15.26;100.00;94348.09;5139812;27;20079;-70
2023/06/14 04:30:44;;;;;;;3.30;3.00;;;;;;;15.30;100.00;94351.13;5133507;27;20023;-69
2023/06/14 04:33:11;;;;;;;3.22;2.97;;;;;;;15.30;100.00;94346.66;5133825;27;20094;-70
2023/06/14 04:35:37;;;;;;;3.42;2.78;;;;;;;15.31;100.00;94350.09;5132326;27;20106;-69
2023/06/14 04:38:09;;;;;;;4.35;3.30;;;;;;;15.31;100.00;94356.25;5133625;27;20030;-69
2023/06/14 04:40:42;;;;;;;5.03;3.00;;;;;;;15.39;100.00;94357.88;5141163;27;20033;-70
2023/06/14 04:43:08;;;;;;;3.15;2.92;;;;;;;15.43;100.00;94353.78;5135914;27;20411;-69
2023/06/14 04:45:33;;;;;;;5.43;3.00;;;;;;;15.44;100.00;94358.06;5128386;27;20047;-69
2023/06/14 04:47:59;;;;;;;4.28;2.75;;;;;;;15.41;100.00;94361.13;5132209;27;20042;-69
2023/06/14 04:50:25;;;;;;;3.58;2.90;;;;;;;15.43;100.00;94361.75;5134044;27;20166;-69
2023/06/14 04:52:51;;;;;;;2.83;2.72;;;;;;;15.44;100.00;94365.19;5135219;27;20034;-69
2023/06/14 04:55:19;;;;;;;4.63;3.58;;;;;;;15.46;100.00;94363.97;5134558;27;20447;-69
2023/06/14 04:57:44;;;;;;;3.25;2.92;;;;;;;15.47;100.00;94362.97;5134995;27;20108;-69
2023/06/14 05:00:11;;;;;;;3.50;3.10;;;;;;;15.44;100.00;94366.03;5121868;27;20036;-70
2023/06/14 05:02:37;;;;;;;3.17;2.75;;;;;;;15.44;100.00;94375.81;5130299;27;20031;-69
2023/06/14 05:05:06;;;;;;;3.42;2.80;;;;;;;15.41;100.00;94371.75;5133876;27;20047;-69
2023/06/14 05:07:33;;;;;;;8.43;2.95;;;;;;;15.42;100.00;94383.16;5132533;27;20015;-70
2023/06/14 05:09:59;;;;;;;4.50;2.67;;;;;;;15.41;100.00;94379.69;5135446;27;20041;-70
2023/06/14 05:12:24;;;;;;;3.88;3.55;;;;;;;15.43;100.00;94385.63;5149090;27;20109;-70
2023/06/14 05:14:50;;;;;;;3.40;3.10;;;;;;;15.39;100.00;94379.09;5134781;27;20062;-70
2023/06/14 05:17:16;;;;;;;8.85;3.17;;;;;;;15.35;100.00;94387.66;5127105;27;20024;-70
2023/06/14 05:19:42;;;;;;;5.57;2.83;;;;;;;15.32;100.00;94395.00;5133918;27;20027;-70
2023/06/14 05:22:07;;;;;;;4.20;2.85;;;;;;;15.36;100.00;94389.28;5132783;27;20035;-70
2023/06/14 05:24:33;;;;;;;5.78;3.17;;;;;;;15.37;100.00;94385.59;5135233;27;20031;-70
2023/06/14 05:26:58;;;;;;;9.60;3.40;;;;;;;15.34;100.00;94389.47;5132988;27;20044;-70
2023/06/14 05:29:24;;;;;;;3.67;2.78;;;;;;;15.31;100.00;94387.22;5124462;27;20468;-70
2023/06/14 05:31:50;;;;;;;5.30;3.03;;;;;;;15.30;100.00;94390.91;5130774;27;20034;-70
2023/06/14 05:34:15;;;;;;;4.50;2.70;;;;;;;15.32;100.00;94384.38;5127614;27;20027;-70
2023/06/14 05:36:40;;;;;;;4.47;3.05;;;;;;;15.36;100.00;94376.03;5134118;27;20074;-70
2023/06/14 05:39:06;;;;;;;3.30;2.72;;;;;;;15.34;100.00;94376.22;5135990;27;20037;-70
2023/06/14 05:41:32;;;;;;;4.45;2.90;;;;;;;15.32;100.00;94370.31;5121745;27;20058;-70
2023/06/14 05:43:57;;;;;;;5.80;2.67;;;;;;;15.32;100.00;94370.31;5133707;27;20031;-70
2023/06/14 05:46:25;;;;;;;4.68;2.80;;;;;;;15.35;100.00;94356.63;5133968;27;20022;-70
2023/06/14 05:48:51;;;;;;;4.63;2.85;;;;;;;15.33;100.00;94348.91;5133265;27;20019;-70
2023/06/14 05:51:18;;;;;;;3.80;2.65;;;;;;;15.38;100.00;94339.50;5134315;27;20019;-70
2023/06/14 05:53:48;;;;;;;4.75;2.80;;;;;;;15.42;100.00;94351.34;5133880;27;20477;-69
2023/06/14 05:56:14;;;;;;;3.63;2.92;;;;;;;15.42;100.00;94344.22;5133542;27;20031;-70
2023/06/14 05:58:39;;;;;;;4.63;3.22;;;;;;;15.42;100.00;84107.88;5131553;27;20608;-69
2023/06/14 06:01:05;;;;;;;7.70;3.40;;;;;;;15.48;100.00;85483.78;5132465;27;20109;-69
2023/06/14 06:03:30;;;;;;;4.95;2.70;;;;;;;15.52;100.00;85536.59;5133666;27;20053;-67
2023/06/14 06:05:56;;;;;;;4.78;2.80;;;;;;;15.58;100.00;85505.78;5130619;27;20459;-68
2023/06/14 06:08:21;;;;;;;3.03;2.70;;;;;;;15.64;100.00;85492.78;5129236;27;20333;-68
2023/06/14 06:10:47;;;;;;;4.20;2.50;;;;;;;15.66;100.00;85499.16;5134522;27;20019;-69
2023/06/14 06:13:12;;;;;;;7.72;3.15;;;;;;;15.69;100.00;85497.56;5134862;27;20506;-69
2023/06/14 06:15:37;;;;;;;2.58;2.47;;;;;;;15.73;100.00;85501.59;5133129;27;20023;-70
2023/06/14 06:18:03;;;;;;;3.53;3.22;;;;;;;15.83;100.00;85483.19;5138658;27;20025;-70
2023/06/14 06:20:31;;;;;;;3.83;2.70;;;;;;;15.86;100.00;85490.28;5137367;27;20023;-69
2023/06/14 06:23:00;;;;;;;2.97;2.78;;;;;;;15.99;100.00;85467.19;5137986;27;20019;-71
2023/06/14 06:25:31;;;;;;;4.22;2.65;;;;;;;16.10;100.00;85458.19;5135930;27;20030;-69
2023/06/14 06:27:57;;;;;;;2.67;2.53;;;;;;;16.11;100.00;85465.69;5136990;27;20019;-68
2023/06/14 06:30:23;;;;;;;2.90;2.58;;;;;;;16.18;100.00;85491.25;5138657;27;20064;-68
2023/06/14 06:32:48;;;;;;;4.80;2.40;;;;;;;16.24;100.00;85500.13;5133470;27;20425;-68
2023/06/14 06:35:14;;;;;;;6.72;2.10;;;;;;;16.27;100.00;85530.34;5139959;27;20498;-69
2023/06/14 06:37:40;;;;;;;2.78;2.33;;;;;;;16.30;100.00;85580.59;5137594;27;20019;-69
2023/06/14 06:40:07;;;;;;;2.72;2.30;;;;;;;16.35;100.00;85640.25;5138443;27;20154;-69
2023/06/14 06:42:32;;;;;;;2.53;2.15;;;;;;;16.44;100.00;85690.72;5136812;27;20059;-69
2023/06/14 06:44:58;;;;;;;2.63;2.47;;;;;;;16.54;100.00;85736.66;5142054;27;20050;-70
2023/06/14 06:47:24;;;;;;;2.80;2.60;;;;;;;16.79;100.00;85732.53;5136360;27;20077;-70
2023/06/14 06:49:50;;;;;;;4.07;2.80;;;;;;;16.98;100.00;85744.13;5137829;27;20490;-70
2023/06/14 06:52:15;;;;;;;5.47;4.00;;;;;;;17.18;100.00;85762.53;5137810;27;20030;-70
2023/06/14 06:54:41;;;;;;;5.22;3.97;;;;;;;17.39;100.00;85786.19;5136684;27;20562;-70
2023/06/14 06:57:06;;;;;;;7.07;4.95;;;;;;;17.45;100.00;85880.78;5132220;27;20055;-71
2023/06/14 06:59:32;;;;;;;5.18;4.15;;;;;;;17.52;100.00;85972.00;5139217;27;20639;-71
2023/06/14 07:01:58;;;;;;;6.03;2.90;;;;;;;17.64;100.00;86050.97;5137142;27;20084;-71
2023/06/14 07:04:23;;;;;;;3.78;2.65;;;;;;;17.86;100.00;86140.72;5134838;27;20019;-71
2023/06/14 07:06:49;;;;;;;3.72;2.88;;;;;;;18.45;100.00;86148.63;5136962;27;20030;-71
2023/06/14 07:09:15;;;;;;;5.78;3.30;;;;;;;18.89;100.00;86241.28;5131183;27;20399;-71
2023/06/14 07:11:42;;;;;;;2.85;2.45;;;;;;;19.13;100.00;86438.00;5137826;27;20019;-71
2023/06/14 07:14:08;;;;;;;2.30;2.20;;;;;;;19.58;100.00;86630.94;5137575;27;20052;-71
2023/06/14 07:16:33;;;;;;;2.20;2.00;;;;;;;19.80;100.00;86902.97;5137395;27;20426;-71
2023/06/14 07:19:00;;;;;;;4.20;2.42;;;;;;;20.26;100.00;87108.53;5137288;27;20035;-71
2023/06/14 07:21:28;;;;;;;1.98;1.80;;;;;;;19.92;100.00;87517.41;5136603;27;20029;-71
2023/06/14 07:23:53;;;;;;;3.22;2.13;;;;;;;20.00;100.00;87737.50;5137631;27;20046;-72
2023/06/14 07:26:19;;;;;;;2.25;1.80;;;;;;;20.46;100.00;87863.63;5137147;27;20023;-72
2023/06/14 07:28:46;;;;;;;2.10;2.00;;;;;;;20.85;100.00;88008.66;5125951;27;20020;-71
2023/06/14 07:31:12;;;;;;;4.20;1.70;;;;;;;20.68;100.00;88346.66;5136555;27;20647;-71
2023/06/14 07:33:38;;;;;;;3.53;1.83;;;;;;;20.60;100.00;88556.78;5140868;27;20420;-71
2023/06/14 07:36:04;;;;;;;3.42;1.70;;;;;;;21.08;100.00;88618.34;5133229;27;20038;-71
2023/06/14 07:38:29;;;;;;;2.00;1.90;;;;;;;21.42;100.00;88794.41;5136088;27;20553;-71
2023/06/14 07:40:54;;;;;;;2.05;1.90;;;;;;;21.92;100.00;88937.50;5137262;27;20106;-71
2023/06/14 07:43:20;;;;;;;2.28;1.90;;;;;;;22.38;100.00;89115.47;5137246;27;20052;-71
2023/06/14 07:45:45;;;;;;;2.38;2.03;;;;;;;22.80;100.00;89408.84;5137428;27;20119;-71
2023/06/14 07:48:11;;;;;;;5.50;2.22;;;;;;;22.97;100.00;89650.56;5136446;27;20038;-71
2023/06/14 07:50:36;;;;;;;2.00;1.90;;;;;;;22.79;100.00;89892.28;5140903;27;20028;-71
2023/06/14 07:53:02;;;;;;;5.35;1.80;;;;;;;22.86;100.00;90055.09;5132403;27;20031;-71
2023/06/14 07:55:28;;;;;;;3.75;1.92;;;;;;;22.81;100.00;90152.63;5136709;27;20039;-72
2023/06/14 07:57:54;;;;;;;3.70;1.80;;;;;;;23.23;100.00;90172.59;5131401;27;20047;-71
2023/06/14 08:00:20;;;;;;;1.90;1.80;;;;;;;23.70;100.00;90245.84;5148493;27;20166;-72
2023/06/14 08:02:46;;;;;;;1.85;1.75;;;;;;;23.64;100.00;90327.00;5137976;27;20022;-72
2023/06/14 08:05:11;;;;;;;3.00;2.13;;;;;;;23.58;100.00;90386.31;5135620;27;20023;-71
2023/06/14 08:07:37;;;;;;;2.05;1.90;;;;;;;23.59;100.00;90444.22;5127659;27;20042;-72
2023/06/14 08:10:05;;;;;;;1.63;1.63;;;;;;;23.78;100.00;90578.81;5133075;27;20091;-72
2023/06/14 08:12:30;;;;;;;3.33;1.80;;;;;;;24.27;100.00;90561.47;5128120;27;20020;-72
2023/06/14 08:14:56;;;;;;;1.92;1.83;;;;;;;24.82;100.00;90641.28;5136637;27;20471;-72
2023/06/14 08:17:21;;;;;;;1.65;1.65;;;;;;;24.84;100.00;90881.78;5131650;27;20102;-72
2023/06/14 08:19:46;;;;;;;1.60;1.60;;;;;;;24.72;100.00;91043.94;5135276;27;20056;-71
2023/06/14 08:22:12;;;;;;;1.70;1.60;;;;;;;24.82;100.00;91088.41;5136641;27;20058;-72
2023/06/14 08:24:39;;;;;;;1.48;1.42;;;;;;;24.27;100.00;91223.13;5132465;27;20015;-71
2023/06/14 08:27:05;;;;;;;2.00;1.90;;;;;;;23.61;100.00;91273.91;5128861;27;20015;-72
2023/06/14 08:29:32;;;;;;;1.90;1.80;;;;;;;23.23;100.00;91266.84;5135558;27;20122;-72
2023/06/14 08:31:58;;;;;;;2.13;1.63;;;;;;;23.19;100.00;91271.28;5139197;27;20026;-72
2023/06/14 08:34:23;;;;;;;1.80;1.70;;;;;;;23.72;100.00;91212.53;5135604;27;20012;-71
2023/06/14 08:36:52;;;;;;;2.80;2.10;;;;;;;24.28;100.00;91232.75;5138103;27;20439;-71
2023/06/14 08:39:17;;;;;;;1.98;1.80;;;;;;;24.51;100.00;91355.94;5133314;27;20023;-72
2023/06/14 08:41:46;;;;;;;1.73;1.60;;;;;;;24.96;100.00;91426.09;5140418;27;20093;-71
2023/06/14 08:44:12;;;;;;;2.15;1.95;;;;;;;25.13;100.00;91522.75;5137897;27;20031;-72
2023/06/14 08:46:38;;;;;;;2.17;1.80;;;;;;;25.31;100.00;91579.03;5134832;27;20106;-72
2023/06/14 08:49:05;;;;;;;1.67;1.58;;;;;;;25.77;100.00;91632.06;5135853;27;20072;-72
2023/06/14 08:51:33;;;;;;;5.20;2.35;;;;;;;26.03;100.00;91699.84;5135952;27;20081;-72
2023/06/14 08:54:01;;;;;;;1.90;1.80;;;;;;;25.85;100.00;91820.47;5133758;27;20054;-70
2023/06/14 08:56:28;;;;;;;1.80;1.70;;;;;;;26.14;100.00;91867.28;5139393;27;20047;-70
2023/06/14 08:58:56;;;;;;;1.77;1.67;;;;;;;25.61;100.00;91993.53;5124634;27;20032;-69
2023/06/14 09:01:23;;;;;;;2.17;1.77;;;;;;;25.10;100.00;92074.97;5134955;27;20638;-70
2023/06/14 09:03:49;;;;;;;2.10;2.00;;;;;;;25.43;100.00;92007.06;5135598;27;20631;-70
2023/06/14 09:06:15;;;;;;;1.90;1.80;;;;;;;25.94;100.00;92013.59;5134606;27;20027;-70
2023/06/14 09:08:45;;;;;;;4.05;1.70;;;;;;;25.49;100.00;92190.78;5132247;27;20039;-70
2023/06/14 09:11:15;;;;;;;2.05;1.70;;;;;;;26.28;100.00;92200.47;5133002;27;20391;-70
2023/06/14 09:13:41;;;;;;;1.80;1.70;;;;;;;26.12;100.00;92321.47;5133667;27;20026;-70
2023/06/14 09:16:07;;;;;;;2.67;2.00;;;;;;;26.45;100.00;92354.06;5133799;27;20035;-70
2023/06/14 09:18:38;;;;;;;2.20;2.00;;;;;;;27.14;100.00;92321.66;5139400;27;20593;-70
2023/06/14 09:21:07;;;;;;;3.70;2.17;;;;;;;27.57;100.00;92402.72;5134501;27;20098;-70
2023/06/14 09:23:52;;;;;;;2.10;2.00;;;;;;;27.67;100.00;92488.78;5143155;27;20097;-70
2023/06/14 09:26:23;;;;;;;3.15;2.10;;;;;;;27.21;100.00;92596.53;5134625;27;20031;-70
2023/06/14 09:28:49;;;;;;;2.20;2.00;;;;;;;26.95;100.00;92580.41;5135627;27;20027;-70
2023/06/14 09:31:19;;;;;;;2.65;2.10;;;;;;;27.17;100.00;92558.59;5133985;27;20029;-70
2023/06/14 09:33:49;;;;;;;2.83;2.40;;;;;;;27.26;100.00;92636.84;5134988;27;20025;-70
2023/06/14 09:36:21;;;;;;;2.45;2.30;;;;;;;26.81;100.00;92708.16;5134318;27;20060;-70
2023/06/14 09:38:58;;;;;;;2.25;2.15;;;;;;;26.78;100.00;92746.56;5125635;27;20028;-69
2023/06/14 09:41:38;;;;;;;2.60;2.40;;;;;;;26.06;100.00;92762.84;5132444;27;20019;-70
2023/06/14 09:44:05;;;;;;;2.42;2.17;;;;;;;26.05;100.00;92753.16;5140124;27;20031;-70
2023/06/14 09:46:31;;;;;;;2.67;2.47;;;;;;;27.03;100.00;92736.94;5147528;27;20104;-70
2023/06/14 09:48:57;;;;;;;2.70;2.50;;;;;;;27.14;100.00;92804.09;5134137;27;20036;-70
2023/06/14 09:51:23;;;;;;;3.85;2.80;;;;;;;27.70;100.00;92822.38;5134926;27;20077;-70
2023/06/14 09:53:49;;;;;;;2.85;2.65;;;;;;;27.60;100.00;92912.66;5128013;27;20047;-71
2023/06/14 09:56:32;;;;;;;2.60;2.50;;;;;;;27.19;100.00;92879.56;5134472;27;20027;-71
2023/06/14 09:58:59;;;;;;;2.70;2.50;;;;;;;27.86;100.00;92847.00;5135859;27;20503;-70
2023/06/14 10:01:29;;;;;;;2.55;2.33;;;;;;;28.15;100.00;92903.13;5132060;27;20425;-70
2023/06/14 10:04:03;;;;;;;3.28;2.97;;;;;;;28.30;100.00;92944.31;5135063;27;20023;-71
2023/06/14 10:06:29;;;;;;;;;;;;;;;27.98;100.00;93027.47;5130226;27;20050;-71
2023/06/14 10:08:59;;;;;;;3.33;2.92;;;;;;;28.20;100.00;93031.97;5133704;27;19915;-71
2023/06/14 10:11:26;;;;;;;3.30;3.00;;;;;;;28.37;100.00;93030.34;5135687;27;20023;-70
2023/06/14 10:13:52;;;;;;;2.83;2.58;;;;;;;28.39;100.00;93063.28;5136322;27;20534;-71
2023/06/14 10:16:30;;;;;;;2.95;2.78;;;;;;;28.03;100.00;93025.41;5133352;27;20023;-71
2023/06/14 10:19:34;;;;;;;3.05;2.85;;;;;;;28.56;100.00;93068.69;5132004;28;20027;-70
2023/06/14 10:22:09;;;;;;;3.00;2.80;;;;;;;28.81;100.00;93123.13;5122917;27;20034;-70
2023/06/14 10:24:42;;;;;;;4.88;3.00;;;;;;;28.34;100.00;93182.47;5126611;27;20023;-71
2023/06/14 10:27:11;;;;;;;3.10;2.80;;;;;;;28.56;100.00;93205.91;5133009;27;20023;-71
2023/06/14 10:29:59;;;;;;;5.55;2.95;;;;;;;28.36;100.00;93254.09;5133219;27;20076;-70
2023/06/14 10:32:25;;;;;;;3.53;3.30;;;;;;;28.62;100.00;93209.25;5121879;27;20035;-71
2023/06/14 10:35:15;;;;;;;4.40;3.33;;;;;;;28.58;100.00;93285.66;5133833;27;20059;-71
2023/06/14 10:37:41;;;;;;;3.75;3.42;;;;;;;28.56;100.00;93371.75;5134326;27;20050;-70
2023/06/14 10:40:08;;;;;;;3.53;3.22;;;;;;;28.55;100.00;93399.94;5132011;27;20028;-70
2023/06/14 10:42:34;;;;;;;4.20;3.80;;;;;;;28.18;100.00;93412.78;5134669;27;20498;-71
2023/06/14 10:45:00;;;;;;;7.18;3.30;;;;;;;28.43;100.00;93324.75;5133292;27;20015;-71
2023/06/14 10:47:29;;;;;;;3.58;3.28;;;;;;;28.88;100.00;93371.72;5132335;27;20074;-71
2023/06/14 10:50:05;;;;;;;3.63;3.33;;;;;;;29.33;100.00;93367.19;5134396;28;20019;-71
2023/06/14 10:52:35;;;;;;;8.18;3.55;;;;;;;29.21;100.00;93409.25;5133948;27;20031;-71
2023/06/14 10:55:08;;;;;;;4.40;3.42;;;;;;;29.12;100.00;93487.78;5130799;28;20019;-71
2023/06/14 10:57:35;;;;;;;4.57;3.70;;;;;;;29.32;100.00;93588.56;5133524;27;20043;-71
2023/06/14 11:00:11;;;;;;;4.45;3.35;;;;;;;29.37;100.00;93610.09;5136589;27;20025;-70
2023/06/14 11:02:51;;;;;;;5.95;3.55;;;;;;;29.28;100.00;93653.41;5135695;27;20050;-70
2023/06/14 11:05:26;;;;;;;3.92;3.63;;;;;;;29.14;100.00;93712.28;5140471;27;20030;-70
2023/06/14 11:08:07;;;;;;;4.10;3.38;;;;;;;29.34;100.00;93751.63;5135544;27;20049;-71
2023/06/14 11:10:39;;;;;;;6.10;3.70;;;;;;;29.09;100.00;93734.88;5135294;27;20524;-70
2023/06/14 11:13:05;;;;;;;3.75;3.45;;;;;;;29.42;100.00;93828.72;5137549;27;20102;-70
2023/06/14 11:15:32;;;;;;;3.67;3.38;;;;;;;29.62;100.00;93853.69;5137652;27;20054;-71
2023/06/14 11:18:00;;;;;;;4.10;3.20;;;;;;;29.70;100.00;93894.44;5147481;27;20019;-70
2023/06/14 11:20:27;;;;;;;4.97;3.38;;;;;;;29.79;100.00;93885.56;5139756;27;20019;-71
2023/06/14 11:22:53;;;;;;;6.95;3.38;;;;;;;29.72;100.00;93892.22;5135788;27;20031;-70
2023/06/14 11:25:19;;;;;;;6.63;3.20;;;;;;;29.69;100.00;93894.75;5138922;27;20023;-70